createdAt,value
2018-05-13T00:02:25.487Z,36.40
2018-05-13T00:04:53.836Z,37.90
2018-05-13T00:07:22.210Z,38.57
2018-05-13T00:09:50.560Z,41.13
2018-05-13T00:12:18.903Z,40.07
2018-05-13T00:14:47.628Z,41.43
2018-05-13T00:17:16.729Z,35.47
2018-05-13T00:19:45.815Z,33.23
2018-05-13T00:22:14.940Z,36.27
2018-05-13T00:24:43.321Z,42.80
2018-05-13T00:27:11.673Z,40.73
2018-05-13T00:29:40.812Z,42.87
2018-05-13T00:32:09.139Z,36.90
2018-05-13T00:34:38.223Z,39.07
2018-05-13T00:37:06.916Z,44.43
2018-05-13T00:39:35.226Z,34.87
2018-05-13T00:42:03.590Z,42.43
2018-05-13T00:44:32.728Z,41.30
2018-05-13T00:47:01.072Z,34.80
2018-05-13T00:49:29.408Z,40.70
2018-05-13T00:51:57.755Z,38.73
2018-05-13T00:54:43.598Z,32.50
2018-05-13T00:57:12.407Z,42.00
2018-05-13T00:59:40.772Z,35.43
2018-05-13T01:02:09.875Z,37.57
2018-05-13T01:04:39.008Z,35.07
2018-05-13T01:07:07.347Z,34.10
2018-05-13T01:09:36.443Z,30.83
2018-05-13T01:12:04.826Z,29.37
2018-05-13T01:14:33.943Z,31.77
2018-05-13T01:17:02.245Z,32.47
2018-05-13T01:19:30.808Z,35.80
2018-05-13T01:21:59.155Z,38.90
2018-05-13T01:24:28.260Z,33.27
2018-05-13T01:26:57.416Z,37.97
2018-05-13T01:29:25.731Z,33.57
2018-05-13T01:31:54.075Z,31.30
2018-05-13T01:34:22.411Z,34.20
2018-05-13T01:36:50.756Z,37.57
2018-05-13T01:39:19.852Z,35.60
2018-05-13T01:41:48.459Z,34.70
2018-05-13T01:44:17.560Z,33.53
2018-05-13T01:46:46.669Z,38.17
2018-05-13T01:49:15.043Z,39.13
2018-05-13T01:51:43.428Z,30.93
2018-05-13T01:54:11.778Z,33.87
2018-05-13T01:56:41.022Z,32.13
2018-05-13T01:59:09.341Z,32.87
2018-05-13T02:01:37.665Z,39.00
2018-05-13T02:04:06.116Z,31.97
2018-05-13T02:06:34.453Z,34.87
2018-05-13T02:09:02.801Z,33.00
2018-05-13T02:11:31.147Z,43.60
2018-05-13T02:13:59.473Z,36.33
2018-05-13T02:16:27.790Z,33.53
2018-05-13T02:18:56.186Z,37.50
2018-05-13T02:21:24.507Z,41.67
2018-05-13T02:23:52.817Z,41.13
2018-05-13T02:26:21.469Z,32.60
2018-05-13T02:28:50.572Z,30.03
2018-05-13T02:31:18.900Z,33.43
2018-05-13T02:33:48.033Z,36.87
2018-05-13T02:36:16.337Z,33.90
2018-05-13T02:38:44.651Z,33.30
2018-05-13T02:41:13.007Z,34.07
2018-05-13T02:43:42.099Z,41.40
2018-05-13T02:46:10.425Z,37.47
2018-05-13T02:48:40.078Z,33.97
2018-05-13T02:51:08.430Z,32.90
2018-05-13T02:53:36.783Z,37.00
2018-05-13T02:56:05.944Z,43.07
2018-05-13T02:58:34.681Z,32.80
2018-05-13T03:01:03.764Z,36.97
2018-05-13T03:03:32.871Z,31.50
2018-05-13T03:06:01.940Z,37.30
2018-05-13T03:08:31.099Z,40.13
2018-05-13T03:10:59.824Z,33.93
2018-05-13T03:13:28.123Z,31.60
2018-05-13T03:15:56.455Z,31.50
2018-05-13T03:18:24.804Z,41.63
2018-05-13T03:20:53.145Z,33.50
2018-05-13T03:23:22.278Z,39.57
2018-05-13T03:25:50.692Z,34.97
2018-05-13T03:28:19.083Z,39.40
2018-05-13T03:30:47.484Z,36.80
2018-05-13T03:33:16.191Z,36.30
2018-05-13T03:35:44.520Z,35.60
2018-05-13T03:38:12.815Z,29.97
2018-05-13T03:40:41.205Z,31.60
2018-05-13T03:43:09.536Z,34.80
2018-05-13T03:45:37.875Z,35.07
2018-05-13T03:48:06.991Z,33.10
2018-05-13T03:50:36.168Z,39.00
2018-05-13T03:53:04.514Z,36.07
2018-05-13T03:55:33.062Z,32.53
2018-05-13T03:58:01.401Z,37.27
2018-05-13T04:00:29.740Z,42.13
2018-05-13T04:02:58.105Z,38.03
2018-05-13T04:05:26.464Z,34.93
2018-05-13T04:11:42.426Z,37.87
2018-05-13T04:14:28.977Z,38.97
2018-05-13T04:16:58.043Z,34.37
2018-05-13T04:19:26.359Z,33.03
2018-05-13T04:21:54.727Z,38.63
2018-05-13T04:24:23.856Z,29.27
2018-05-13T04:26:52.154Z,31.83
2018-05-13T04:29:20.532Z,36.50
2018-05-13T04:31:48.927Z,30.77
2018-05-13T04:34:17.254Z,31.03
2018-05-13T04:36:45.792Z,31.13
2018-05-13T04:39:14.116Z,35.43
2018-05-13T04:41:42.420Z,34.43
2018-05-13T04:44:10.794Z,30.63
2018-05-13T04:46:39.123Z,34.20
2018-05-13T04:49:07.447Z,30.73
2018-05-13T04:51:35.816Z,32.57
2018-05-13T04:54:04.144Z,31.67
2018-05-13T04:56:32.459Z,33.37
2018-05-13T04:59:01.961Z,31.40
2018-05-13T05:01:31.235Z,36.17
2018-05-13T05:03:59.605Z,32.67
2018-05-13T05:06:27.990Z,31.47
2018-05-13T05:08:56.392Z,32.67
2018-05-13T05:11:24.707Z,33.10
2018-05-13T05:13:53.091Z,31.30
2018-05-13T05:16:21.428Z,40.23
2018-05-13T05:18:49.772Z,33.90
2018-05-13T05:21:18.579Z,28.53
2018-05-13T05:23:46.893Z,38.00
2018-05-13T05:26:15.230Z,31.07
2018-05-13T05:28:43.577Z,35.03
2018-05-13T05:31:11.886Z,31.73
2018-05-13T05:33:40.226Z,31.10
2018-05-13T05:36:08.583Z,33.53
2018-05-13T05:38:36.912Z,35.87
2018-05-13T05:41:05.232Z,31.33
2018-05-13T05:43:34.442Z,30.87
2018-05-13T05:46:02.778Z,28.53
2018-05-13T05:48:31.111Z,28.77
2018-05-13T05:50:59.473Z,29.70
2018-05-13T05:53:27.819Z,27.33
2018-05-13T05:55:56.140Z,31.60
2018-05-13T05:58:24.518Z,29.37
2018-05-13T06:00:52.834Z,36.30
2018-05-13T06:03:21.260Z,34.70
2018-05-13T06:05:50.020Z,33.80
2018-05-13T06:08:18.356Z,35.53
2018-05-13T06:10:46.687Z,30.17
2018-05-13T06:13:15.093Z,30.70
2018-05-13T06:15:44.185Z,31.60
2018-05-13T06:18:13.286Z,26.87
2018-05-13T06:20:41.663Z,30.43
2018-05-13T06:23:10.769Z,30.53
2018-05-13T06:25:39.105Z,36.77
2018-05-13T06:28:07.811Z,30.90
2018-05-13T06:30:36.158Z,35.87
2018-05-13T06:33:04.478Z,32.07
2018-05-13T06:35:33.611Z,29.07
2018-05-13T06:38:01.934Z,28.50
2018-05-13T06:40:30.283Z,29.80
2018-05-13T06:42:58.638Z,30.80
2018-05-13T06:45:26.976Z,39.90
2018-05-13T06:47:55.293Z,35.53
2018-05-13T06:50:24.136Z,32.87
2018-05-13T06:52:52.469Z,29.13
2018-05-13T06:55:20.811Z,27.57
2018-05-13T06:57:49.928Z,28.27
2018-05-13T07:00:18.293Z,33.67
2018-05-13T07:02:47.441Z,33.50
2018-05-13T07:05:15.754Z,31.73
2018-05-13T07:07:44.087Z,37.47
2018-05-13T07:10:12.410Z,29.80
2018-05-13T07:12:41.915Z,28.27
2018-05-13T07:15:10.250Z,37.10
2018-05-13T07:17:38.598Z,29.07
2018-05-13T07:20:06.985Z,39.70
2018-05-13T07:22:35.350Z,34.87
2018-05-13T07:25:04.450Z,25.13
2018-05-13T07:27:33.594Z,24.53
2018-05-13T07:30:01.978Z,27.97
2018-05-13T07:32:30.307Z,24.17
2018-05-13T07:34:58.882Z,23.00
2018-05-13T07:37:27.974Z,32.83
2018-05-13T07:39:57.099Z,29.67
2018-05-13T07:42:25.455Z,25.90
2018-05-13T07:44:55.008Z,27.30
2018-05-13T07:47:23.347Z,23.70
2018-05-13T07:49:52.470Z,31.63
2018-05-13T07:52:20.820Z,23.00
2018-05-13T07:54:49.994Z,22.70
2018-05-13T07:57:18.755Z,24.40
2018-05-13T07:59:47.076Z,31.47
2018-05-13T08:02:16.174Z,22.63
2018-05-13T08:04:45.309Z,24.03
2018-05-13T08:07:13.623Z,20.50
2018-05-13T08:09:41.948Z,28.67
2018-05-13T08:12:10.332Z,24.37
2018-05-13T08:14:38.636Z,25.50
2018-05-13T08:17:06.958Z,21.83
2018-05-13T08:19:36.456Z,21.67
2018-05-13T08:22:04.795Z,25.40
2018-05-13T08:24:33.128Z,20.70
2018-05-13T08:27:02.260Z,22.47
2018-05-13T08:29:30.586Z,25.27
2018-05-13T08:31:58.909Z,17.83
2018-05-13T08:34:27.307Z,31.20
2018-05-13T08:36:55.648Z,19.37
2018-05-13T08:39:24.771Z,22.80
2018-05-13T08:41:53.708Z,21.67
2018-05-13T08:44:22.725Z,21.90
2018-05-13T08:46:51.093Z,22.23
2018-05-13T08:49:20.229Z,23.20
2018-05-13T08:51:48.565Z,30.33
2018-05-13T08:54:16.920Z,22.53
2018-05-13T08:56:45.304Z,27.83
2018-05-13T08:59:13.655Z,23.73
2018-05-13T09:01:41.986Z,19.87
2018-05-13T09:04:11.484Z,22.70
2018-05-13T09:06:39.853Z,36.33
2018-05-13T09:09:08.185Z,24.10
2018-05-13T09:11:36.527Z,22.43
2018-05-13T09:14:04.900Z,24.90
2018-05-13T09:16:33.184Z,21.70
2018-05-13T09:19:01.536Z,29.60
2018-05-13T09:21:29.855Z,22.80
2018-05-13T09:23:58.927Z,23.10
2018-05-13T09:26:27.338Z,18.73
2018-05-13T09:28:55.688Z,19.23
2018-05-13T09:31:24.035Z,26.53
2018-05-13T09:33:52.479Z,21.67
2018-05-13T09:36:21.566Z,27.97
2018-05-13T09:38:49.904Z,19.43
2018-05-13T09:41:18.271Z,19.20
2018-05-13T09:43:46.612Z,20.77
2018-05-13T09:46:15.024Z,18.10
2018-05-13T09:48:43.607Z,25.73
2018-05-13T09:51:11.972Z,17.30
2018-05-13T09:53:40.333Z,19.90
2018-05-13T09:56:08.701Z,19.23
2018-05-13T09:58:37.114Z,22.23
2018-05-13T10:01:05.436Z,17.40
2018-05-13T10:03:33.822Z,17.53
2018-05-13T10:06:02.171Z,20.30
2018-05-13T10:08:30.493Z,20.60
2018-05-13T10:10:59.223Z,18.10
2018-05-13T10:13:27.564Z,13.77
2018-05-13T10:15:56.644Z,28.27
2018-05-13T10:18:24.992Z,25.03
2018-05-13T10:20:53.334Z,16.07
2018-05-13T10:23:21.653Z,13.80
2018-05-13T10:25:50.041Z,19.83
2018-05-13T10:28:18.362Z,15.47
2018-05-13T10:30:46.684Z,27.77
2018-05-13T10:33:15.948Z,17.53
2018-05-13T10:35:45.040Z,16.23
2018-05-13T10:38:13.363Z,14.17
2018-05-13T10:40:41.725Z,20.27
2018-05-13T10:43:10.828Z,12.57
2018-05-13T10:45:39.173Z,19.47
2018-05-13T10:48:07.546Z,14.60
2018-05-13T10:50:36.647Z,12.77
2018-05-13T10:53:05.792Z,16.47
2018-05-13T10:55:34.351Z,11.97
2018-05-13T10:58:02.694Z,24.60
2018-05-13T11:00:31.773Z,12.10
2018-05-13T11:03:00.139Z,14.30
2018-05-13T11:05:28.469Z,10.40
2018-05-13T11:07:56.800Z,16.40
2018-05-13T11:10:25.152Z,15.13
2018-05-13T11:12:53.485Z,15.50
2018-05-13T11:15:22.575Z,16.77
2018-05-13T11:17:51.191Z,13.27
2018-05-13T11:20:19.574Z,12.40
2018-05-13T11:22:47.916Z,11.50
2018-05-13T11:25:17.138Z,10.00
2018-05-13T11:27:45.548Z,18.00
2018-05-13T11:30:13.970Z,9.37
2018-05-13T11:32:42.324Z,9.47
2018-05-13T11:35:10.648Z,10.20
2018-05-13T11:37:39.718Z,11.43
2018-05-13T11:40:08.223Z,19.70
2018-05-13T11:42:37.636Z,10.47
2018-05-13T11:45:06.748Z,16.00
2018-05-13T11:47:35.102Z,10.40
2018-05-13T11:50:04.204Z,13.97
2018-05-13T11:52:32.548Z,13.33
2018-05-13T11:55:00.918Z,11.20
2018-05-13T11:57:29.240Z,11.20
2018-05-13T11:59:57.596Z,10.47
2018-05-13T12:02:26.391Z,15.73
2018-05-13T12:04:55.413Z,14.67
2018-05-13T12:07:23.732Z,13.87
2018-05-13T12:09:52.105Z,18.43
2018-05-13T12:12:20.468Z,26.80
2018-05-13T12:14:48.822Z,16.43
2018-05-13T12:17:17.935Z,16.03
2018-05-13T12:19:46.258Z,16.80
2018-05-13T12:22:15.365Z,23.27
2018-05-13T12:24:43.992Z,17.07
2018-05-13T12:27:12.304Z,15.20
2018-05-13T12:29:40.631Z,13.87
2018-05-13T12:32:09.026Z,26.00
2018-05-13T12:34:37.340Z,19.40
2018-05-13T12:37:05.665Z,11.90
2018-05-13T12:39:34.808Z,9.17
2018-05-13T12:42:03.159Z,18.43
2018-05-13T12:44:31.501Z,10.37
2018-05-13T12:47:00.315Z,20.07
2018-05-13T12:49:28.647Z,17.10
2018-05-13T12:51:56.978Z,15.80
2018-05-13T12:54:25.325Z,12.53
2018-05-13T12:56:53.661Z,13.53
2018-05-13T12:59:22.015Z,13.20
2018-05-13T13:01:50.367Z,9.80
2018-05-13T13:04:19.502Z,12.77
2018-05-13T13:06:47.832Z,9.10
2018-05-13T13:09:16.380Z,15.73
2018-05-13T13:11:44.722Z,16.60
2018-05-13T13:14:13.040Z,11.03
2018-05-13T13:16:41.412Z,10.47
2018-05-13T13:19:09.781Z,9.43
2018-05-13T13:21:38.201Z,28.17
2018-05-13T13:24:06.547Z,22.60
2018-05-13T13:26:34.901Z,13.00
2018-05-13T13:29:03.221Z,13.93
2018-05-13T13:31:32.457Z,9.80
2018-05-13T13:34:01.599Z,10.30
2018-05-13T13:36:29.905Z,20.83
2018-05-13T13:38:58.267Z,8.37
2018-05-13T13:41:26.590Z,12.73
2018-05-13T13:43:55.674Z,8.30
2018-05-13T13:46:24.032Z,10.97
2018-05-13T13:48:52.339Z,19.33
2018-05-13T13:51:20.674Z,16.07
2018-05-13T13:53:49.163Z,19.43
2018-05-13T13:56:17.507Z,16.43
2018-05-13T13:58:45.819Z,17.70
2018-05-13T14:01:14.154Z,8.43
2018-05-13T14:03:43.235Z,8.40
2018-05-13T14:06:11.570Z,9.50
2018-05-13T14:08:39.979Z,9.47
2018-05-13T14:11:08.326Z,7.50
2018-05-13T14:13:36.663Z,16.97
2018-05-13T14:16:06.119Z,7.70
2018-05-13T14:18:34.451Z,7.43
2018-05-13T14:21:03.550Z,11.00
2018-05-13T14:23:32.648Z,8.00
2018-05-13T14:26:01.740Z,8.77
2018-05-13T14:28:30.842Z,9.00
2018-05-13T14:30:59.218Z,10.93
2018-05-13T14:33:27.568Z,12.90
2018-05-13T14:35:56.714Z,11.47
2018-05-13T14:38:25.240Z,10.97
2018-05-13T14:40:53.647Z,11.63
2018-05-13T14:43:21.949Z,10.63
2018-05-13T14:45:51.151Z,6.10
2018-05-13T14:48:19.488Z,13.20
2018-05-13T14:50:47.800Z,6.07
2018-05-13T14:53:16.195Z,6.67
2018-05-13T14:55:44.563Z,12.43
2018-05-13T14:58:13.040Z,14.23
2018-05-13T15:00:41.630Z,12.83
2018-05-13T15:03:09.944Z,5.47
2018-05-13T15:05:38.261Z,7.23
2018-05-13T15:08:07.409Z,19.63
2018-05-13T15:10:35.727Z,8.53
2018-05-13T15:13:04.062Z,9.30
2018-05-13T15:15:32.441Z,8.77
2018-05-13T15:18:00.775Z,8.63
2018-05-13T15:20:29.861Z,8.67
2018-05-13T15:22:58.394Z,7.40
2018-05-13T15:25:26.705Z,9.07
2018-05-13T15:27:55.049Z,16.40
2018-05-13T15:30:23.403Z,15.83
2018-05-13T15:32:51.750Z,10.00
2018-05-13T15:35:20.048Z,16.83
2018-05-13T15:37:49.139Z,13.97
2018-05-13T15:40:18.243Z,12.10
2018-05-13T15:42:47.448Z,5.20
2018-05-13T15:45:16.639Z,10.43
2018-05-13T15:47:44.990Z,21.80
2018-05-13T15:50:13.315Z,6.00
2018-05-13T15:52:41.717Z,16.57
2018-05-13T15:55:10.088Z,7.10
2018-05-13T15:57:38.408Z,9.53
2018-05-13T16:00:06.762Z,8.47
2018-05-13T16:02:35.071Z,6.60
2018-05-13T16:05:03.418Z,19.13
2018-05-13T16:07:31.824Z,5.80
2018-05-13T16:10:00.420Z,5.80
2018-05-13T16:12:28.754Z,5.90
2018-05-13T16:14:57.133Z,10.23
2018-05-13T16:17:25.459Z,7.30
2018-05-13T16:19:54.575Z,4.57
2018-05-13T16:22:22.925Z,16.53
2018-05-13T16:24:51.232Z,6.20
2018-05-13T16:27:20.337Z,23.93
2018-05-13T16:29:48.729Z,6.77
2018-05-13T16:32:17.044Z,10.13
2018-05-13T16:34:45.408Z,9.13
2018-05-13T16:37:13.808Z,15.10
2018-05-13T16:39:42.156Z,12.87
2018-05-13T16:42:10.495Z,6.97
2018-05-13T16:44:39.621Z,6.43
2018-05-13T16:47:07.959Z,7.13
2018-05-13T16:49:36.300Z,10.40
2018-05-13T16:52:05.071Z,20.43
2018-05-13T16:54:33.375Z,16.40
2018-05-13T16:57:01.714Z,10.23
2018-05-13T16:59:30.186Z,17.10
2018-05-13T17:01:58.516Z,15.43
2018-05-13T17:04:26.865Z,7.00
2018-05-13T17:06:55.248Z,12.47
2018-05-13T17:09:23.646Z,10.53
2018-05-13T17:11:51.977Z,3.83
2018-05-13T17:14:20.727Z,10.60
2018-05-13T17:16:49.825Z,4.20
2018-05-13T17:19:18.169Z,5.80
2018-05-13T17:21:46.535Z,4.87
2018-05-13T17:24:14.949Z,7.63
2018-05-13T17:26:43.296Z,4.47
2018-05-13T17:29:11.650Z,4.57
2018-05-13T17:34:54.492Z,13.07
2018-05-13T17:37:23.691Z,7.20
2018-05-13T17:39:51.955Z,7.07
2018-05-13T17:42:20.277Z,3.70
2018-05-13T17:44:48.580Z,8.10
2018-05-13T17:47:16.938Z,9.57
2018-05-13T17:49:45.432Z,5.27
2018-05-13T17:52:13.713Z,8.20
2018-05-13T17:54:42.039Z,4.83
2018-05-13T17:57:11.535Z,10.23
2018-05-13T17:59:39.884Z,6.90
2018-05-13T18:02:08.237Z,13.87
2018-05-13T18:04:36.636Z,4.87
2018-05-13T18:07:05.384Z,4.27
2018-05-13T18:09:33.777Z,14.67
2018-05-13T18:12:02.148Z,3.70
2018-05-13T18:14:30.499Z,12.07
2018-05-13T18:16:58.881Z,7.13
2018-05-13T18:19:28.275Z,12.03
2018-05-13T18:21:56.630Z,3.90
2018-05-13T18:24:24.964Z,9.50
2018-05-13T18:26:53.336Z,12.40
2018-05-13T18:29:21.628Z,6.80
2018-05-13T18:31:50.014Z,6.67
2018-05-13T18:34:19.119Z,8.03
2018-05-13T18:36:47.428Z,17.37
2018-05-13T18:39:15.837Z,16.87
2018-05-13T18:41:45.036Z,4.90
2018-05-13T18:44:13.430Z,9.03
2018-05-13T18:46:42.526Z,12.47
2018-05-13T18:49:10.914Z,4.23
2018-05-13T18:51:39.260Z,6.10
2018-05-13T18:54:07.630Z,14.30
2018-05-13T18:56:36.002Z,9.37
2018-05-13T18:59:04.410Z,23.43
2018-05-13T19:01:32.700Z,18.40
2018-05-13T19:04:01.560Z,6.57
2018-05-13T19:06:29.882Z,13.27
2018-05-13T19:08:58.623Z,12.30
2018-05-13T19:11:27.029Z,38.33
2018-05-13T19:13:55.390Z,22.13
2018-05-13T19:16:23.720Z,5.07
2018-05-13T19:18:52.106Z,7.63
2018-05-13T19:21:20.451Z,5.07
2018-05-13T19:23:49.516Z,8.40
2018-05-13T19:26:17.924Z,5.80
2018-05-13T19:28:47.010Z,14.63
2018-05-13T19:31:15.381Z,5.60
2018-05-13T19:33:43.791Z,11.60
2018-05-13T19:36:12.109Z,12.67
2018-05-13T19:38:41.212Z,4.97
2018-05-13T19:41:09.612Z,5.07
2018-05-13T19:43:38.012Z,5.23
2018-05-13T19:46:07.151Z,14.53
2018-05-13T19:48:35.812Z,10.07
2018-05-13T19:51:04.848Z,17.30
2018-05-13T19:53:33.166Z,12.93
2018-05-13T19:56:02.305Z,11.90
2018-05-13T19:58:30.635Z,8.33
2018-05-13T20:00:58.979Z,8.17
2018-05-13T20:03:27.483Z,23.90
2018-05-13T20:05:55.727Z,13.40
2018-05-13T20:08:24.093Z,8.50
2018-05-13T20:10:52.875Z,7.93
2018-05-13T20:13:21.211Z,6.90
2018-05-13T20:15:50.369Z,10.43
2018-05-13T20:18:18.772Z,10.73
2018-05-13T20:20:47.117Z,4.77
2018-05-13T20:23:26.411Z,18.93
2018-05-13T20:25:54.680Z,6.60
2018-05-13T20:28:23.825Z,14.33
2018-05-13T20:30:52.755Z,7.90
2018-05-13T20:33:21.066Z,9.43
2018-05-13T20:35:49.400Z,7.50
2018-05-13T20:38:17.767Z,13.20
2018-05-13T20:40:46.118Z,5.80
2018-05-13T20:43:15.209Z,7.30
2018-05-13T20:45:44.327Z,7.60
2018-05-13T20:48:12.656Z,11.10
2018-05-13T20:50:40.989Z,13.63
2018-05-13T20:53:09.404Z,4.80
2018-05-13T20:55:37.753Z,5.00
2018-05-13T20:58:06.852Z,9.40
2018-05-13T21:00:35.258Z,13.03
2018-05-13T21:03:03.600Z,7.00
2018-05-13T21:05:31.987Z,10.87
2018-05-13T21:08:00.355Z,5.10
2018-05-13T21:10:28.776Z,5.67
2018-05-13T21:12:57.094Z,6.60
2018-05-13T21:15:25.646Z,15.03
2018-05-13T21:17:55.520Z,13.43
2018-05-13T21:20:23.881Z,11.53
2018-05-13T21:22:52.226Z,21.10
2018-05-13T21:25:20.545Z,14.20
2018-05-13T21:27:48.918Z,8.93
2018-05-13T21:30:17.359Z,4.87
2018-05-13T21:32:45.640Z,9.00
2018-05-13T21:35:13.982Z,8.37
2018-05-13T21:37:42.820Z,16.67
2018-05-13T21:40:11.190Z,16.73
2018-05-13T21:42:40.348Z,13.20
2018-05-13T21:45:08.793Z,5.50
2018-05-13T21:47:37.895Z,23.83
2018-05-13T21:50:06.347Z,5.73
2018-05-13T21:52:35.505Z,6.37
2018-05-13T21:55:03.852Z,5.77
2018-05-13T21:57:32.177Z,17.00
2018-05-13T22:00:00.743Z,5.67
2018-05-13T22:02:29.053Z,6.80
2018-05-13T22:05:00.132Z,8.33
2018-05-13T22:07:28.503Z,6.00
2018-05-13T22:09:56.884Z,13.43
2018-05-13T22:12:25.218Z,9.43
2018-05-13T22:14:53.570Z,5.90
2018-05-13T22:17:21.977Z,4.97
2018-05-13T22:19:50.264Z,5.70
2018-05-13T22:22:18.929Z,7.60
2018-05-13T22:24:47.282Z,35.57
2018-05-13T22:27:15.653Z,11.40
2018-05-13T22:29:44.003Z,7.37
2018-05-13T22:32:12.320Z,5.57
2018-05-13T22:34:40.721Z,14.63
2018-05-13T22:37:09.063Z,6.30
2018-05-13T22:39:37.403Z,9.00
2018-05-13T22:42:05.751Z,12.93
2018-05-13T22:44:34.462Z,5.80
2018-05-13T22:47:02.795Z,16.83
2018-05-13T22:49:31.098Z,7.40
2018-05-13T22:51:59.455Z,5.73
2018-05-13T22:54:27.785Z,8.83
2018-05-13T22:56:56.097Z,8.80
2018-05-13T22:59:24.505Z,8.50
2018-05-13T23:01:52.827Z,5.70
2018-05-13T23:04:21.790Z,7.13
2018-05-13T23:06:50.831Z,10.77
2018-05-13T23:09:19.172Z,7.53
2018-05-13T23:11:47.461Z,8.63
2018-05-13T23:14:15.795Z,7.80
2018-05-13T23:16:44.111Z,8.67
2018-05-13T23:19:12.435Z,6.73
2018-05-13T23:21:41.565Z,4.97
2018-05-13T23:24:09.894Z,5.70
2018-05-13T23:26:39.020Z,7.23
2018-05-13T23:29:07.546Z,16.43
2018-05-13T23:31:35.916Z,11.67
2018-05-13T23:34:04.263Z,9.93
2018-05-13T23:36:32.604Z,6.37
2018-05-13T23:39:00.915Z,8.80
2018-05-13T23:41:29.240Z,7.90
2018-05-13T23:43:57.590Z,10.37
2018-05-13T23:46:25.895Z,11.20
2018-05-13T23:48:54.243Z,23.83
2018-05-13T23:51:22.727Z,7.73
2018-05-13T23:53:51.081Z,5.90
2018-05-13T23:56:20.175Z,9.83
2018-05-13T23:58:49.271Z,8.43
